Terminal Aerodrome Forecast
Issued by NWS

Current Version | Previous Version | Text Only | Print | Product List | Glossary On
Versions: 1 2 3 4 5 6 7 8 9 10 11 12 13 14 15 16 17
000
FTUS43 KGRB 271140
TAFCWA
TAF
KCWA 271140Z 2712/2812 08006KT P6SM SCT025 OVC045
      TEMPO 2712/2715 4SM -SHRA BKN025
     FM271500 09007KT P6SM -SHRA OVC022
     FM272300 12003KT P6SM OVC035
     FM280400 VRB03KT 5SM BR BKN013
     FM281000 VRB03KT 2SM BR BKN007=

USA.gov is the U.S. government's official web portal to all federal, state and local government web resources and services.